Veradale, Washington
Current Conditions -  °F | °C
As of 7:53 PM on Saturday 20 Dec 2014 (Local Time) from KSFF Reporting Station
Light Rain Light Rain  
Wind Chill: 37°   Ceiling: 1600
Heat Index: 42°   Visibility: 6mi
Dew Point: 38°   Wind: 9mph
Humidity: 85%   Direction: 120°ESE
Pressure: 29.59"   Gusts: NA
Location:  47.66°N, 117.19°W
Report Text: KSFF 210353Z 12008KT 6SM -RA BR OVC016 06/03 A2959 RMK AO2 SLP029 P0005 T00560033
Loading
Personal Weather Stations






























Interactive Weather Map New forecast layout! Learn more

10-Day Weather Forecast

Advertisements
Track Severe Weather on mobile